sensor_id;sensor_type;location;lat;lon;timestamp;pressure;altitude;pressure_sealevel;temperature;humidity
69980;BME280;57318;56.232;43.944;2022-10-16T00:00:56;100373.38;;;4.27;70.88
69980;BME280;57318;56.232;43.944;2022-10-16T00:03:22;100381.28;;;4.27;70.60
69980;BME280;57318;56.232;43.944;2022-10-16T00:05:48;100370.81;;;4.26;70.99
69980;BME280;57318;56.232;43.944;2022-10-16T00:08:14;100379.56;;;4.26;70.74
69980;BME280;57318;56.232;43.944;2022-10-16T00:10:40;100379.56;;;4.26;70.86
69980;BME280;57318;56.232;43.944;2022-10-16T00:13:06;100386.66;;;4.24;70.79
69980;BME280;57318;56.232;43.944;2022-10-16T00:19:12;100378.03;;;4.21;71.04
69980;BME280;57318;56.232;43.944;2022-10-16T00:21:38;100383.28;;;4.21;71.66
69980;BME280;57318;56.232;43.944;2022-10-16T00:24:22;100385.97;;;4.19;71.28
69980;BME280;57318;56.232;43.944;2022-10-16T00:26:50;100384.25;;;4.18;71.53
69980;BME280;57318;56.232;43.944;2022-10-16T00:29:16;100393.19;;;4.14;71.33
69980;BME280;57318;56.232;43.944;2022-10-16T00:31:41;100388.91;;;4.11;71.21
69980;BME280;57318;56.232;43.944;2022-10-16T00:34:07;100395.94;;;4.11;71.40
69980;BME280;57318;56.232;43.944;2022-10-16T00:36:33;100396.97;;;4.07;71.50
69980;BME280;57318;56.232;43.944;2022-10-16T00:38:58;100397.97;;;4.04;71.45
69980;BME280;57318;56.232;43.944;2022-10-16T00:41:26;100398.06;;;4.01;71.50
69980;BME280;57318;56.232;43.944;2022-10-16T00:43:54;100405.91;;;4.03;71.59
69980;BME280;57318;56.232;43.944;2022-10-16T00:46:38;100404.91;;;4.05;71.69
69980;BME280;57318;56.232;43.944;2022-10-16T00:49:07;100404.84;;;4.07;71.47
69980;BME280;57318;56.232;43.944;2022-10-16T00:51:37;100412.75;;;4.07;71.43
69980;BME280;57318;56.232;43.944;2022-10-16T00:54:09;100404.91;;;4.05;71.29
69980;BME280;57318;56.232;43.944;2022-10-16T00:56:35;100402.22;;;4.07;71.74
69980;BME280;57318;56.232;43.944;2022-10-16T00:59:10;100399.38;;;4.13;71.49
69980;BME280;57318;56.232;43.944;2022-10-16T01:01:39;100416.69;;;4.19;71.48
69980;BME280;57318;56.232;43.944;2022-10-16T01:04:05;100402.59;;;4.20;71.41
69980;BME280;57318;56.232;43.944;2022-10-16T01:07:12;100409.41;;;4.25;71.69
69980;BME280;57318;56.232;43.944;2022-10-16T01:12:40;100407.59;;;4.27;71.07
69980;BME280;57318;56.232;43.944;2022-10-16T01:15:19;100407.47;;;4.30;71.01
69980;BME280;57318;56.232;43.944;2022-10-16T01:18:14;100404.72;;;4.33;71.53
69980;BME280;57318;56.232;43.944;2022-10-16T01:20:57;100409.13;;;4.33;71.24
69980;BME280;57318;56.232;43.944;2022-10-16T01:32:14;100413.50;;;4.34;71.66
69980;BME280;57318;56.232;43.944;2022-10-16T01:35:14;100415.34;;;4.30;71.70
69980;BME280;57318;56.232;43.944;2022-10-16T01:40:17;100409.38;;;4.27;71.74
69980;BME280;57318;56.232;43.944;2022-10-16T01:42:49;100410.31;;;4.24;72.08
69980;BME280;57318;56.232;43.944;2022-10-16T01:45:19;100416.69;;;4.19;72.46
69980;BME280;57318;56.232;43.944;2022-10-16T01:47:46;100408.13;;;4.13;72.44
69980;BME280;57318;56.232;43.944;2022-10-16T01:50:15;100413.50;;;4.10;72.50
69980;BME280;57318;56.232;43.944;2022-10-16T01:52:45;100418.81;;;4.09;72.93
69980;BME280;57318;56.232;43.944;2022-10-16T01:55:14;100417.16;;;4.06;73.15
69980;BME280;57318;56.232;43.944;2022-10-16T01:57:45;100419.97;;;4.02;73.26
69980;BME280;57318;56.232;43.944;2022-10-16T02:00:13;100417.44;;;3.98;73.33
69980;BME280;57318;56.232;43.944;2022-10-16T02:02:45;100421.91;;;3.96;73.70
69980;BME280;57318;56.232;43.944;2022-10-16T02:05:32;100425.38;;;3.97;73.36
69980;BME280;57318;56.232;43.944;2022-10-16T02:07:59;100427.06;;;4.00;73.84
69980;BME280;57318;56.232;43.944;2022-10-16T02:10:25;100426.13;;;4.01;73.79
69980;BME280;57318;56.232;43.944;2022-10-16T02:13:07;100431.38;;;4.01;73.99
69980;BME280;57318;56.232;43.944;2022-10-16T02:15:54;100428.53;;;4.07;73.82
69980;BME280;57318;56.232;43.944;2022-10-16T02:18:20;100426.72;;;4.09;73.72
69980;BME280;57318;56.232;43.944;2022-10-16T02:23:29;100432.88;;;4.08;74.39
69980;BME280;57318;56.232;43.944;2022-10-16T02:25:58;100434.66;;;4.07;73.95
69980;BME280;57318;56.232;43.944;2022-10-16T02:28:35;100432.94;;;4.06;74.36
69980;BME280;57318;56.232;43.944;2022-10-16T02:31:07;100440.03;;;4.04;74.04
69980;BME280;57318;56.232;43.944;2022-10-16T02:33:35;100438.25;;;4.05;74.60
69980;BME280;57318;56.232;43.944;2022-10-16T02:36:02;100433.06;;;4.03;74.60
69980;BME280;57318;56.232;43.944;2022-10-16T02:38:29;100432.16;;;4.04;74.54
69980;BME280;57318;56.232;43.944;2022-10-16T02:40:56;100433.84;;;4.05;74.52
69980;BME280;57318;56.232;43.944;2022-10-16T02:43:22;100437.34;;;4.06;74.48
69980;BME280;57318;56.232;43.944;2022-10-16T02:45:47;100444.31;;;4.07;74.50
69980;BME280;57318;56.232;43.944;2022-10-16T02:48:13;100441.63;;;4.08;74.54
69980;BME280;57318;56.232;43.944;2022-10-16T02:50:38;100443.22;;;4.12;74.42
69980;BME280;57318;56.232;43.944;2022-10-16T02:53:04;100449.13;;;4.19;74.51
69980;BME280;57318;56.232;43.944;2022-10-16T02:55:30;100448.09;;;4.23;74.44
69980;BME280;57318;56.232;43.944;2022-10-16T02:57:55;100438.25;;;4.28;74.11
69980;BME280;57318;56.232;43.944;2022-10-16T03:00:21;100439.03;;;4.30;73.98
69980;BME280;57318;56.232;43.944;2022-10-16T03:02:47;100438.97;;;4.32;73.71
69980;BME280;57318;56.232;43.944;2022-10-16T03:05:13;100447.81;;;4.31;73.73
69980;BME280;57318;56.232;43.944;2022-10-16T03:07:39;100449.56;;;4.30;74.00
69980;BME280;57318;56.232;43.944;2022-10-16T03:10:06;100451.28;;;4.31;73.97
69980;BME280;57318;56.232;43.944;2022-10-16T03:12:32;100444.25;;;4.32;73.76
69980;BME280;57318;56.232;43.944;2022-10-16T03:14:58;100451.22;;;4.33;73.92
69980;BME280;57318;56.232;43.944;2022-10-16T03:17:24;100448.66;;;4.31;73.86
69980;BME280;57318;56.232;43.944;2022-10-16T03:19:50;100450.38;;;4.32;73.75
69980;BME280;57318;56.232;43.944;2022-10-16T03:22:16;100455.53;;;4.36;73.79
69980;BME280;57318;56.232;43.944;2022-10-16T03:24:42;100450.31;;;4.34;73.84
69980;BME280;57318;56.232;43.944;2022-10-16T03:27:08;100452.19;;;4.30;73.64
69980;BME280;57318;56.232;43.944;2022-10-16T03:29:34;100448.66;;;4.31;73.97
69980;BME280;57318;56.232;43.944;2022-10-16T03:32:03;100454.41;;;4.41;73.73
69980;BME280;57318;56.232;43.944;2022-10-16T03:34:29;100454.19;;;4.47;73.35
69980;BME280;57318;56.232;43.944;2022-10-16T03:36:58;100458.59;;;4.47;73.09
69980;BME280;57318;56.232;43.944;2022-10-16T03:39:24;100462.31;;;4.41;73.11
69980;BME280;57318;56.232;43.944;2022-10-16T03:41:50;100466.91;;;4.36;73.29
69980;BME280;57318;56.232;43.944;2022-10-16T03:44:16;100465.22;;;4.33;73.48
69980;BME280;57318;56.232;43.944;2022-10-16T03:46:41;100466.28;;;4.29;73.56
69980;BME280;57318;56.232;43.944;2022-10-16T03:49:07;100466.41;;;4.26;73.67
69980;BME280;57318;56.232;43.944;2022-10-16T03:51:34;100457.56;;;4.27;73.99
69980;BME280;57318;56.232;43.944;2022-10-16T03:54:02;100465.47;;;4.27;73.86
69980;BME280;57318;56.232;43.944;2022-10-16T03:56:28;100468.91;;;4.29;73.61
69980;BME280;57318;56.232;43.944;2022-10-16T03:58:54;100470.59;;;4.30;73.82
69980;BME280;57318;56.232;43.944;2022-10-16T04:01:20;100463.72;;;4.28;73.52
69980;BME280;57318;56.232;43.944;2022-10-16T04:03:46;100473.34;;;4.27;73.89
69980;BME280;57318;56.232;43.944;2022-10-16T04:06:12;100472.50;;;4.27;74.02
69980;BME280;57318;56.232;43.944;2022-10-16T04:08:37;100475.09;;;4.28;73.98
69980;BME280;57318;56.232;43.944;2022-10-16T04:11:04;100470.66;;;4.29;73.51
69980;BME280;57318;56.232;43.944;2022-10-16T04:13:30;100477.53;;;4.33;73.46
69980;BME280;57318;56.232;43.944;2022-10-16T04:15:55;100480.13;;;4.34;73.76
69980;BME280;57318;56.232;43.944;2022-10-16T04:18:21;100477.47;;;4.34;73.83
69980;BME280;57318;56.232;43.944;2022-10-16T04:20:47;100484.19;;;4.43;73.46
69980;BME280;57318;56.232;43.944;2022-10-16T06:31:42;100543.34;;;13.85;42.18
69980;BME280;57318;56.232;43.944;2022-10-16T06:34:09;100540.56;;;12.77;44.85
69980;BME280;57318;56.232;43.944;2022-10-16T06:36:36;100536.97;;;12.01;47.09
69980;BME280;57318;56.232;43.944;2022-10-16T06:39:02;100534.94;;;11.64;48.02
69980;BME280;57318;56.232;43.944;2022-10-16T06:41:28;100534.56;;;11.16;49.65
69980;BME280;57318;56.232;43.944;2022-10-16T06:43:54;100532.97;;;10.72;51.05
69980;BME280;57318;56.232;43.944;2022-10-16T06:46:22;100544.66;;;10.40;51.94
69980;BME280;57318;56.232;43.944;2022-10-16T06:48:48;100535.97;;;10.08;52.58
69980;BME280;57318;56.232;43.944;2022-10-16T06:51:17;100547.44;;;9.64;54.02
69980;BME280;57318;56.232;43.944;2022-10-16T06:53:45;100552.88;;;9.30;55.13
69980;BME280;57318;56.232;43.944;2022-10-16T06:56:31;100549.50;;;8.96;56.03
69980;BME280;57318;56.232;43.944;2022-10-16T06:58:58;100542.13;;;8.70;57.00
69980;BME280;57318;56.232;43.944;2022-10-16T07:01:24;100548.31;;;8.53;57.87
69980;BME280;57318;56.232;43.944;2022-10-16T07:03:51;100546.22;;;8.42;58.56
69980;BME280;57318;56.232;43.944;2022-10-16T07:06:20;100555.22;;;8.22;59.22
69980;BME280;57318;56.232;43.944;2022-10-16T07:08:47;100548.25;;;8.03;59.53
69980;BME280;57318;56.232;43.944;2022-10-16T07:11:14;100548.81;;;7.92;60.46
69980;BME280;57318;56.232;43.944;2022-10-16T07:13:42;100550.81;;;7.87;60.83
69980;BME280;57318;56.232;43.944;2022-10-16T07:16:11;100548.53;;;7.80;60.62
69980;BME280;57318;56.232;43.944;2022-10-16T07:18:37;100556.56;;;7.78;61.36
69980;BME280;57318;56.232;43.944;2022-10-16T07:21:06;100549.50;;;7.79;61.13
69980;BME280;57318;56.232;43.944;2022-10-16T07:23:33;100556.56;;;7.78;60.98
69980;BME280;57318;56.232;43.944;2022-10-16T07:25:58;100555.94;;;7.73;61.25
69980;BME280;57318;56.232;43.944;2022-10-16T07:28:24;100547.84;;;7.76;61.17
69980;BME280;57318;56.232;43.944;2022-10-16T07:30:50;100540.44;;;7.83;60.98
69980;BME280;57318;56.232;43.944;2022-10-16T07:33:16;100556.59;;;7.95;60.60
69980;BME280;57318;56.232;43.944;2022-10-16T07:35:52;100560.38;;;8.07;60.59
69980;BME280;57318;56.232;43.944;2022-10-16T07:38:18;100566.38;;;8.28;59.85
69980;BME280;57318;56.232;43.944;2022-10-16T07:40:44;100560.91;;;8.49;59.09
69980;BME280;57318;56.232;43.944;2022-10-16T07:43:10;100559.44;;;8.59;59.12
69980;BME280;57318;56.232;43.944;2022-10-16T07:45:36;100560.56;;;8.55;58.73
69980;BME280;57318;56.232;43.944;2022-10-16T07:48:02;100561.19;;;8.43;59.10
69980;BME280;57318;56.232;43.944;2022-10-16T07:50:28;100561.53;;;8.19;59.64
69980;BME280;57318;56.232;43.944;2022-10-16T07:52:53;100573.50;;;10.61;54.18
69980;BME280;57318;56.232;43.944;2022-10-16T07:55:19;100581.59;;;13.37;46.08
69980;BME280;57318;56.232;43.944;2022-10-16T07:57:45;100583.53;;;15.64;40.90
69980;BME280;57318;56.232;43.944;2022-10-16T08:00:11;100579.81;;;17.33;38.57
69980;BME280;57318;56.232;43.944;2022-10-16T08:02:42;100576.28;;;19.05;34.50
69980;BME280;57318;56.232;43.944;2022-10-16T08:05:08;100577.09;;;19.97;32.00
69980;BME280;57318;56.232;43.944;2022-10-16T08:07:33;100568.22;;;20.83;31.36
69980;BME280;57318;56.232;43.944;2022-10-16T08:09:59;100574.84;;;21.65;29.93
69980;BME280;57318;56.232;43.944;2022-10-16T08:12:25;100577.91;;;22.27;27.80
69980;BME280;57318;56.232;43.944;2022-10-16T08:14:51;100569.13;;;22.17;28.31
69980;BME280;57318;56.232;43.944;2022-10-16T08:17:17;100573.69;;;22.41;27.33
69980;BME280;57318;56.232;43.944;2022-10-16T08:19:46;100568.81;;;22.76;27.44
69980;BME280;57318;56.232;43.944;2022-10-16T08:22:13;100574.34;;;22.51;26.50
69980;BME280;57318;56.232;43.944;2022-10-16T08:24:39;100571.31;;;22.94;27.43
69980;BME280;57318;56.232;43.944;2022-10-16T08:27:05;100577.72;;;23.10;26.00
69980;BME280;57318;56.232;43.944;2022-10-16T08:29:31;100572.88;;;22.80;26.28
69980;BME280;57318;56.232;43.944;2022-10-16T08:31:56;100573.19;;;22.29;26.70
69980;BME280;57318;56.232;43.944;2022-10-16T08:34:22;100567.38;;;22.57;27.03
69980;BME280;57318;56.232;43.944;2022-10-16T08:36:48;100570.41;;;23.41;26.09
69980;BME280;57318;56.232;43.944;2022-10-16T08:39:13;100569.66;;;23.24;25.84
69980;BME280;57318;56.232;43.944;2022-10-16T08:44:29;100564.53;;;22.26;26.76
69980;BME280;57318;56.232;43.944;2022-10-16T08:47:18;100550.75;;;19.91;30.41
69980;BME280;57318;56.232;43.944;2022-10-16T08:49:56;100551.16;;;18.01;33.39
69980;BME280;57318;56.232;43.944;2022-10-16T08:52:28;100545.88;;;16.50;36.47
69980;BME280;57318;56.232;43.944;2022-10-16T08:54:56;100553.84;;;15.88;38.42
69980;BME280;57318;56.232;43.944;2022-10-16T08:57:24;100542.97;;;14.82;40.51
69980;BME280;57318;56.232;43.944;2022-10-16T08:59:52;100546.00;;;13.85;42.64
69980;BME280;57318;56.232;43.944;2022-10-16T09:02:32;100547.19;;;13.32;44.58
69980;BME280;57318;56.232;43.944;2022-10-16T09:05:20;100543.03;;;14.12;43.15
69980;BME280;57318;56.232;43.944;2022-10-16T09:08:23;100544.00;;;15.57;40.63
69980;BME280;57318;56.232;43.944;2022-10-16T09:10:57;100549.47;;;15.55;40.31
69980;BME280;57318;56.232;43.944;2022-10-16T09:18:51;100545.41;;;14.73;42.04
69980;BME280;57318;56.232;43.944;2022-10-16T09:21:25;100552.91;;;14.34;42.67
69980;BME280;57318;56.232;43.944;2022-10-16T09:23:51;100550.22;;;14.23;43.03
69980;BME280;57318;56.232;43.944;2022-10-16T09:26:18;100548.50;;;15.12;41.83
69980;BME280;57318;56.232;43.944;2022-10-16T09:28:45;100557.16;;;16.44;39.05
69980;BME280;57318;56.232;43.944;2022-10-16T09:31:19;100559.97;;;18.31;35.72
69980;BME280;57318;56.232;43.944;2022-10-16T09:33:50;100555.72;;;20.04;33.04
69980;BME280;57318;56.232;43.944;2022-10-16T09:36:18;100559.25;;;21.34;30.79
69980;BME280;57318;56.232;43.944;2022-10-16T09:38:45;100561.50;;;22.12;28.98
69980;BME280;57318;56.232;43.944;2022-10-16T09:41:19;100568.81;;;21.79;29.83
69980;BME280;57318;56.232;43.944;2022-10-16T09:46:27;100566.69;;;20.89;30.35
69980;BME280;57318;56.232;43.944;2022-10-16T09:48:56;100568.97;;;21.77;29.11
69980;BME280;57318;56.232;43.944;2022-10-16T09:53:56;100567.94;;;22.11;28.79
69980;BME280;57318;56.232;43.944;2022-10-16T09:56:30;100564.81;;;23.12;27.54
69980;BME280;57318;56.232;43.944;2022-10-16T09:59:00;100565.63;;;23.43;27.07
69980;BME280;57318;56.232;43.944;2022-10-16T10:01:47;100571.75;;;22.66;27.94
69980;BME280;57318;56.232;43.944;2022-10-16T10:04:13;100565.47;;;23.68;26.94
69980;BME280;57318;56.232;43.944;2022-10-16T10:06:48;100566.56;;;23.82;26.19
69980;BME280;57318;56.232;43.944;2022-10-16T10:09:23;100556.41;;;24.97;25.28
69980;BME280;57318;56.232;43.944;2022-10-16T10:14:30;100563.44;;;24.91;24.85
69980;BME280;57318;56.232;43.944;2022-10-16T10:19:47;100555.22;;;25.57;24.30
69980;BME280;57318;56.232;43.944;2022-10-16T10:22:26;100557.13;;;26.00;24.15
69980;BME280;57318;56.232;43.944;2022-10-16T10:35:56;100559.75;;;25.93;23.77
69980;BME280;57318;56.232;43.944;2022-10-16T10:38:50;100558.72;;;25.94;23.16
69980;BME280;57318;56.232;43.944;2022-10-16T10:47:06;100545.06;;;26.79;22.62
69980;BME280;57318;56.232;43.944;2022-10-16T10:49:57;100548.41;;;26.40;22.76
69980;BME280;57318;56.232;43.944;2022-10-16T10:52:34;100546.03;;;24.85;24.33
69980;BME280;57318;56.232;43.944;2022-10-16T10:58:19;100531.44;;;21.83;28.34
69980;BME280;57318;56.232;43.944;2022-10-16T11:01:15;100538.34;;;21.77;27.39
69980;BME280;57318;56.232;43.944;2022-10-16T11:06:37;100534.66;;;23.06;24.78
69980;BME280;57318;56.232;43.944;2022-10-16T11:09:21;100535.09;;;23.73;23.71
69980;BME280;57318;56.232;43.944;2022-10-16T11:12:00;100538.34;;;23.68;23.52
69980;BME280;57318;56.232;43.944;2022-10-16T11:14:32;100541.34;;;24.49;22.38
69980;BME280;57318;56.232;43.944;2022-10-16T11:17:11;100545.59;;;23.99;23.21
69980;BME280;57318;56.232;43.944;2022-10-16T11:19:47;100547.69;;;23.89;23.26
69980;BME280;57318;56.232;43.944;2022-10-16T11:27:39;100540.22;;;21.85;25.79
69980;BME280;57318;56.232;43.944;2022-10-16T11:30:12;100545.78;;;22.80;24.62
69980;BME280;57318;56.232;43.944;2022-10-16T11:32:54;100543.78;;;23.91;23.30
69980;BME280;57318;56.232;43.944;2022-10-16T11:40:53;100549.75;;;24.25;22.61
69980;BME280;57318;56.232;43.944;2022-10-16T11:43:32;100556.03;;;24.40;22.04
69980;BME280;57318;56.232;43.944;2022-10-16T11:46:08;100550.00;;;24.15;22.52
69980;BME280;57318;56.232;43.944;2022-10-16T11:49:14;100549.50;;;23.73;23.21
69980;BME280;57318;56.232;43.944;2022-10-16T11:54:39;100551.31;;;24.04;22.71
69980;BME280;57318;56.232;43.944;2022-10-16T11:57:21;100546.81;;;21.98;25.04
69980;BME280;57318;56.232;43.944;2022-10-16T11:59:52;100542.88;;;21.35;26.24
69980;BME280;57318;56.232;43.944;2022-10-16T12:02:40;100549.19;;;21.52;26.08
69980;BME280;57318;56.232;43.944;2022-10-16T12:05:16;100545.13;;;21.81;25.39
69980;BME280;57318;56.232;43.944;2022-10-16T12:10:36;100540.94;;;22.67;24.46
69980;BME280;57318;56.232;43.944;2022-10-16T12:13:32;100539.19;;;22.83;24.44
69980;BME280;57318;56.232;43.944;2022-10-16T12:18:37;100536.06;;;23.57;22.81
69980;BME280;57318;56.232;43.944;2022-10-16T12:21:04;100531.06;;;22.83;23.34
69980;BME280;57318;56.232;43.944;2022-10-16T12:23:53;100526.91;;;22.56;23.61
69980;BME280;57318;56.232;43.944;2022-10-16T12:26:29;100526.38;;;22.60;24.06
69980;BME280;57318;56.232;43.944;2022-10-16T12:29:19;100521.91;;;22.20;24.37
69980;BME280;57318;56.232;43.944;2022-10-16T12:31:48;100528.84;;;21.32;25.40
69980;BME280;57318;56.232;43.944;2022-10-16T12:34:38;100526.66;;;21.43;25.56
69980;BME280;57318;56.232;43.944;2022-10-16T12:37:14;100515.84;;;20.84;26.38
69980;BME280;57318;56.232;43.944;2022-10-16T12:39:45;100520.22;;;19.72;28.41
69980;BME280;57318;56.232;43.944;2022-10-16T12:42:33;100530.19;;;19.98;28.60
69980;BME280;57318;56.232;43.944;2022-10-16T12:44:59;100527.69;;;20.23;28.35
69980;BME280;57318;56.232;43.944;2022-10-16T12:49:58;100521.38;;;19.52;29.49
69980;BME280;57318;56.232;43.944;2022-10-16T12:52:38;100522.03;;;19.18;30.13
69980;BME280;57318;56.232;43.944;2022-10-16T12:55:05;100528.75;;;19.14;30.22
69980;BME280;57318;56.232;43.944;2022-10-16T13:11:27;100516.03;;;17.54;33.79
69980;BME280;57318;56.232;43.944;2022-10-16T13:20:13;100527.63;;;14.72;40.07
69980;BME280;57318;56.232;43.944;2022-10-16T13:28:49;100524.78;;;11.84;47.76
69980;BME280;57318;56.232;43.944;2022-10-16T13:31:21;100524.16;;;11.93;47.67
69980;BME280;57318;56.232;43.944;2022-10-16T13:33:58;100525.16;;;12.18;47.34
69980;BME280;57318;56.232;43.944;2022-10-16T13:36:30;100523.78;;;12.12;47.28
69980;BME280;57318;56.232;43.944;2022-10-16T13:39:15;100528.81;;;11.77;48.36
69980;BME280;57318;56.232;43.944;2022-10-16T13:41:57;100536.66;;;11.52;48.93
69980;BME280;57318;56.232;43.944;2022-10-16T13:44:23;100535.88;;;11.23;49.65
69980;BME280;57318;56.232;43.944;2022-10-16T13:46:58;100532.13;;;10.71;51.59
69980;BME280;57318;56.232;43.944;2022-10-16T13:49:24;100538.38;;;10.27;53.15
69980;BME280;57318;56.232;43.944;2022-10-16T13:51:55;100531.94;;;9.86;54.97
69980;BME280;57318;56.232;43.944;2022-10-16T13:54:22;100534.63;;;9.56;55.93
69980;BME280;57318;56.232;43.944;2022-10-16T13:56:47;100543.41;;;9.26;57.30
69980;BME280;57318;56.232;43.944;2022-10-16T13:59:32;100539.56;;;9.00;58.28
69980;BME280;57318;56.232;43.944;2022-10-16T14:01:59;100544.94;;;8.82;59.46
69980;BME280;57318;56.232;43.944;2022-10-16T14:04:30;100542.47;;;8.63;59.91
69980;BME280;57318;56.232;43.944;2022-10-16T14:06:57;100541.47;;;8.48;60.51
69980;BME280;57318;56.232;43.944;2022-10-16T14:11:53;100545.41;;;8.24;61.62
69980;BME280;57318;56.232;43.944;2022-10-16T14:14:21;100549.38;;;8.15;62.31
69980;BME280;57318;56.232;43.944;2022-10-16T14:16:47;100542.69;;;8.08;62.50
69980;BME280;57318;56.232;43.944;2022-10-16T14:19:25;100539.66;;;7.98;62.59
69980;BME280;57318;56.232;43.944;2022-10-16T14:21:53;100538.38;;;7.89;63.15
69980;BME280;57318;56.232;43.944;2022-10-16T14:24:34;100543.25;;;7.80;63.51
69980;BME280;57318;56.232;43.944;2022-10-16T14:27:01;100540.16;;;7.71;63.86
69980;BME280;57318;56.232;43.944;2022-10-16T14:29:28;100539.47;;;7.68;64.39
69980;BME280;57318;56.232;43.944;2022-10-16T14:32:22;100540.75;;;7.59;64.49
69980;BME280;57318;56.232;43.944;2022-10-16T14:34:53;100543.97;;;7.48;64.51
69980;BME280;57318;56.232;43.944;2022-10-16T14:37:27;100546.03;;;7.41;64.91
69980;BME280;57318;56.232;43.944;2022-10-16T14:39:59;100537.25;;;7.41;64.86
69980;BME280;57318;56.232;43.944;2022-10-16T14:42:37;100547.34;;;7.33;65.01
69980;BME280;57318;56.232;43.944;2022-10-16T14:45:09;100544.94;;;7.28;65.08
69980;BME280;57318;56.232;43.944;2022-10-16T14:47:48;100536.28;;;7.25;65.32
69980;BME280;57318;56.232;43.944;2022-10-16T14:50:14;100551.38;;;7.22;65.47
69980;BME280;57318;56.232;43.944;2022-10-16T14:52:40;100547.19;;;7.18;65.57
69980;BME280;57318;56.232;43.944;2022-10-16T14:55:07;100549.09;;;7.15;65.83
69980;BME280;57318;56.232;43.944;2022-10-16T14:57:36;100545.88;;;7.08;66.04
69980;BME280;57318;56.232;43.944;2022-10-16T15:00:03;100546.19;;;7.02;66.23
69980;BME280;57318;56.232;43.944;2022-10-16T15:02:35;100538.53;;;6.96;66.67
69980;BME280;57318;56.232;43.944;2022-10-16T15:05:12;100544.13;;;6.90;66.37
69980;BME280;57318;56.232;43.944;2022-10-16T15:07:38;100545.13;;;6.87;66.67
69980;BME280;57318;56.232;43.944;2022-10-16T15:10:04;100542.84;;;6.79;66.78
69980;BME280;57318;56.232;43.944;2022-10-16T15:12:30;100547.53;;;6.73;67.25
69980;BME280;57318;56.232;43.944;2022-10-16T15:14:56;100544.25;;;6.67;67.27
69980;BME280;57318;56.232;43.944;2022-10-16T15:17:21;100540.97;;;6.62;67.36
69980;BME280;57318;56.232;43.944;2022-10-16T15:19:47;100545.56;;;6.59;67.67
69980;BME280;57318;56.232;43.944;2022-10-16T15:22:12;100546.63;;;6.55;67.96
69980;BME280;57318;56.232;43.944;2022-10-16T15:24:38;100545.63;;;6.57;67.36
69980;BME280;57318;56.232;43.944;2022-10-16T15:27:04;100544.88;;;6.54;67.45
69980;BME280;57318;56.232;43.944;2022-10-16T15:29:29;100541.47;;;6.52;67.99
69980;BME280;57318;56.232;43.944;2022-10-16T15:31:59;100540.69;;;6.49;68.08
69980;BME280;57318;56.232;43.944;2022-10-16T15:34:26;100539.09;;;6.45;68.05
69980;BME280;57318;56.232;43.944;2022-10-16T15:36:52;100544.59;;;6.41;68.43
69980;BME280;57318;56.232;43.944;2022-10-16T15:39:19;100543.09;;;6.35;68.89
69980;BME280;57318;56.232;43.944;2022-10-16T15:41:47;100536.88;;;6.36;68.67
69980;BME280;57318;56.232;43.944;2022-10-16T15:44:19;100539.59;;;6.35;69.06
69980;BME280;57318;56.232;43.944;2022-10-16T15:46:47;100537.09;;;6.31;69.35
69980;BME280;57318;56.232;43.944;2022-10-16T15:49:13;100533.59;;;6.31;69.31
69980;BME280;57318;56.232;43.944;2022-10-16T15:51:40;100545.94;;;6.30;69.48
69980;BME280;57318;56.232;43.944;2022-10-16T15:54:06;100536.31;;;6.29;69.43
69980;BME280;57318;56.232;43.944;2022-10-16T15:56:32;100530.31;;;6.26;69.66
69980;BME280;57318;56.232;43.944;2022-10-16T15:59:01;100541.78;;;6.25;69.88
69980;BME280;57318;56.232;43.944;2022-10-16T16:01:27;100538.22;;;6.26;70.04
69980;BME280;57318;56.232;43.944;2022-10-16T16:03:54;100537.28;;;6.27;70.12
69980;BME280;57318;56.232;43.944;2022-10-16T16:06:21;100538.03;;;6.30;69.57
69980;BME280;57318;56.232;43.944;2022-10-16T16:08:47;100544.28;;;6.28;70.05
69980;BME280;57318;56.232;43.944;2022-10-16T16:11:14;100541.66;;;6.28;69.96
69980;BME280;57318;56.232;43.944;2022-10-16T16:13:40;100539.72;;;6.31;69.68
69980;BME280;57318;56.232;43.944;2022-10-16T16:16:09;100536.44;;;6.26;69.82
69980;BME280;57318;56.232;43.944;2022-10-16T16:18:34;100534.00;;;6.22;70.03
69980;BME280;57318;56.232;43.944;2022-10-16T16:21:01;100543.72;;;6.21;70.13
69980;BME280;57318;56.232;43.944;2022-10-16T16:23:27;100546.50;;;6.18;70.19
69980;BME280;57318;56.232;43.944;2022-10-16T16:26:25;100540.41;;;6.16;70.42
69980;BME280;57318;56.232;43.944;2022-10-16T16:28:52;100544.50;;;6.23;70.19
69980;BME280;57318;56.232;43.944;2022-10-16T16:31:19;100539.41;;;6.19;70.19
69980;BME280;57318;56.232;43.944;2022-10-16T16:33:44;100541.41;;;6.13;70.42
69980;BME280;57318;56.232;43.944;2022-10-16T16:36:10;100541.41;;;6.13;70.34
69980;BME280;57318;56.232;43.944;2022-10-16T16:38:36;100543.16;;;6.13;70.42
69980;BME280;57318;56.232;43.944;2022-10-16T16:41:13;100541.41;;;6.13;70.08
69980;BME280;57318;56.232;43.944;2022-10-16T16:43:40;100550.88;;;6.18;70.22
69980;BME280;57318;56.232;43.944;2022-10-16T16:46:06;100544.91;;;6.14;69.94
69980;BME280;57318;56.232;43.944;2022-10-16T16:48:32;100540.34;;;6.18;69.71
69980;BME280;57318;56.232;43.944;2022-10-16T16:51:11;100540.53;;;6.13;70.08
69980;BME280;57318;56.232;43.944;2022-10-16T16:53:41;100545.75;;;6.14;69.83
69980;BME280;57318;56.232;43.944;2022-10-16T16:56:07;100542.25;;;6.14;69.78
69980;BME280;57318;56.232;43.944;2022-10-16T16:58:33;100547.59;;;6.12;69.55
69980;BME280;57318;56.232;43.944;2022-10-16T17:01:00;100548.50;;;6.11;69.45
69980;BME280;57318;56.232;43.944;2022-10-16T17:03:33;100539.69;;;6.12;69.22